createdAt,value
2023-05-09T00:00:53.525Z,64.33
2023-05-09T00:01:53.620Z,64.27
2023-05-09T00:02:53.681Z,64.16
2023-05-09T00:03:53.769Z,64.10
2023-05-09T00:04:53.825Z,64.15
2023-05-09T00:05:53.790Z,64.30
2023-05-09T00:06:53.906Z,64.43
2023-05-09T00:07:53.909Z,64.44
2023-05-09T00:08:53.960Z,64.38
2023-05-09T00:09:54.037Z,64.45
2023-05-09T00:10:54.099Z,64.41
2023-05-09T00:11:54.158Z,64.45
2023-05-09T00:12:54.220Z,64.07
2023-05-09T00:13:54.240Z,64.40
2023-05-09T00:14:54.305Z,64.43
2023-05-09T00:15:54.388Z,64.37
2023-05-09T00:16:54.440Z,64.19
2023-05-09T00:17:54.573Z,64.38
2023-05-09T00:18:54.567Z,64.51
2023-05-09T00:19:54.551Z,63.92
2023-05-09T00:20:54.615Z,63.52
2023-05-09T00:21:54.662Z,63.60
2023-05-09T00:22:54.762Z,63.54
2023-05-09T00:23:54.765Z,63.19
2023-05-09T00:24:54.802Z,63.79
2023-05-09T00:25:54.850Z,63.55
2023-05-09T00:26:54.921Z,63.29
2023-05-09T00:27:54.953Z,63.33
2023-05-09T00:28:55.039Z,63.58
2023-05-09T00:29:55.123Z,62.95
2023-05-09T00:30:55.131Z,63.31
2023-05-09T00:31:55.333Z,63.40
2023-05-09T00:32:55.266Z,63.47
2023-05-09T00:33:55.308Z,63.76
2023-05-09T00:34:55.412Z,63.65
2023-05-09T00:35:55.449Z,63.62
2023-05-09T00:36:55.542Z,63.84
2023-05-09T00:37:55.581Z,63.63
2023-05-09T00:38:55.709Z,63.90
2023-05-09T00:39:55.729Z,63.85
2023-05-09T00:40:55.761Z,63.90
2023-05-09T00:41:55.832Z,64.02
2023-05-09T00:42:55.894Z,64.00
2023-05-09T00:43:55.952Z,63.96
2023-05-09T00:44:56.048Z,64.08
2023-05-09T00:45:56.063Z,64.13
2023-05-09T00:46:56.114Z,63.88
2023-05-09T00:47:56.263Z,64.06
2023-05-09T00:48:56.230Z,63.93
2023-05-09T00:49:56.313Z,63.72
2023-05-09T00:50:56.375Z,63.78
2023-05-09T00:51:56.398Z,64.08
2023-05-09T00:52:56.488Z,63.68
2023-05-09T00:53:56.528Z,63.73
2023-05-09T00:54:56.684Z,63.77
2023-05-09T00:55:56.661Z,63.68
2023-05-09T00:56:56.760Z,63.75
2023-05-09T00:57:56.777Z,63.53
2023-05-09T00:58:56.976Z,63.05
2023-05-09T00:59:56.813Z,62.72
2023-05-09T01:00:56.833Z,62.62
2023-05-09T01:01:56.828Z,63.00
2023-05-09T01:02:56.932Z,63.18
2023-05-09T01:03:56.953Z,63.33
2023-05-09T01:04:56.967Z,63.42
2023-05-09T01:05:57.032Z,63.64
2023-05-09T01:06:57.073Z,63.91
2023-05-09T01:07:57.131Z,63.96
2023-05-09T01:08:57.247Z,64.04
2023-05-09T01:09:57.257Z,64.01
2023-05-09T01:10:57.377Z,63.88
2023-05-09T01:11:57.415Z,63.76
2023-05-09T01:12:57.530Z,63.65
2023-05-09T01:13:57.520Z,63.60
2023-05-09T01:14:57.592Z,63.58
2023-05-09T01:15:57.675Z,63.43
2023-05-09T01:16:57.652Z,63.52
2023-05-09T01:17:57.795Z,63.55
2023-05-09T01:18:57.776Z,63.62
2023-05-09T01:19:57.885Z,63.69
2023-05-09T01:20:57.949Z,63.36
2023-05-09T01:21:57.959Z,63.71
2023-05-09T01:22:57.989Z,63.53
2023-05-09T01:23:58.082Z,63.61
2023-05-09T01:24:58.177Z,63.87
2023-05-09T01:25:58.218Z,63.99
2023-05-09T01:26:58.326Z,63.91
2023-05-09T01:27:58.295Z,63.84
2023-05-09T01:28:58.344Z,63.91
2023-05-09T01:29:58.423Z,63.87
2023-05-09T01:30:58.501Z,64.01
2023-05-09T01:31:58.539Z,63.99
2023-05-09T01:32:58.601Z,63.99
2023-05-09T01:33:58.640Z,64.01
2023-05-09T01:34:58.843Z,64.22
2023-05-09T01:35:58.759Z,64.29
2023-05-09T01:36:58.816Z,64.33
2023-05-09T01:37:58.964Z,64.32
2023-05-09T01:38:58.932Z,64.33
2023-05-09T01:39:59.030Z,64.09
2023-05-09T01:40:59.084Z,63.97
2023-05-09T01:41:59.155Z,64.06
2023-05-09T01:42:59.283Z,64.20
2023-05-09T01:43:59.321Z,63.91
2023-05-09T01:44:59.326Z,63.32
2023-05-09T01:45:59.357Z,63.02
2023-05-09T01:46:59.486Z,62.93
2023-05-09T01:47:59.472Z,63.30
2023-05-09T01:48:59.502Z,63.64
2023-05-09T01:49:59.586Z,63.74
2023-05-09T01:50:59.637Z,63.34
2023-05-09T01:51:59.663Z,63.35
2023-05-09T01:52:59.721Z,63.45
2023-05-09T01:53:59.796Z,63.60
2023-05-09T01:54:59.847Z,63.69
2023-05-09T01:55:59.870Z,63.75
2023-05-09T01:56:59.912Z,63.23
2023-05-09T01:57:59.949Z,62.89
2023-05-09T01:59:00.133Z,63.16
2023-05-09T02:00:00.173Z,63.52
2023-05-09T02:01:00.251Z,63.61
2023-05-09T02:02:00.309Z,63.74
2023-05-09T02:03:00.350Z,63.75
2023-05-09T02:04:00.284Z,64.02
2023-05-09T02:05:00.404Z,63.92
2023-05-09T02:06:00.387Z,64.00
2023-05-09T02:07:00.474Z,64.05
2023-05-09T02:08:00.598Z,64.08
2023-05-09T02:09:00.555Z,64.00
2023-05-09T02:10:00.622Z,64.09
2023-05-09T02:11:00.681Z,64.07
2023-05-09T02:12:00.734Z,63.68
2023-05-09T02:13:00.817Z,63.66
2023-05-09T02:14:00.848Z,63.93
2023-05-09T02:15:01.003Z,63.90
2023-05-09T02:16:00.945Z,63.69
2023-05-09T02:17:01.054Z,63.83
2023-05-09T02:18:01.221Z,63.53
2023-05-09T02:19:01.127Z,63.37
2023-05-09T02:20:01.201Z,63.49
2023-05-09T02:21:01.353Z,63.27
2023-05-09T02:22:01.293Z,63.34
2023-05-09T02:23:01.349Z,63.50
2023-05-09T02:24:01.455Z,63.27
2023-05-09T02:25:01.481Z,63.27
2023-05-09T02:26:01.474Z,63.27
2023-05-09T02:27:01.570Z,63.27
2023-05-09T02:28:01.625Z,63.31
2023-05-09T02:29:01.643Z,63.20
2023-05-09T02:30:01.697Z,63.54
2023-05-09T02:31:01.843Z,63.31
2023-05-09T02:32:01.868Z,63.37
2023-05-09T02:33:01.904Z,63.33
2023-05-09T02:34:01.951Z,63.45
2023-05-09T02:35:01.997Z,63.84
2023-05-09T02:36:02.017Z,64.03
2023-05-09T02:37:02.086Z,63.82
2023-05-09T02:38:02.200Z,63.84
2023-05-09T02:39:02.231Z,63.81
2023-05-09T02:40:02.281Z,64.08
2023-05-09T02:41:02.304Z,63.95
2023-05-09T02:42:02.359Z,64.12
2023-05-09T02:43:02.393Z,64.33
2023-05-09T02:44:02.461Z,64.12
2023-05-09T02:45:02.546Z,64.11
2023-05-09T02:46:02.664Z,63.61
2023-05-09T02:47:02.691Z,63.94
2023-05-09T02:48:02.728Z,64.07
2023-05-09T02:49:02.746Z,63.94
2023-05-09T02:50:02.827Z,63.95
2023-05-09T02:51:02.886Z,63.85
2023-05-09T02:52:02.902Z,63.82
2023-05-09T02:53:02.946Z,64.01
2023-05-09T02:54:03.010Z,64.18
2023-05-09T02:55:03.112Z,64.17
2023-05-09T02:56:03.111Z,64.23
2023-05-09T02:57:03.177Z,64.22
2023-05-09T02:58:12.546Z,64.19
2023-05-09T02:59:04.232Z,64.30
2023-05-09T03:00:03.231Z,64.21
2023-05-09T03:01:03.331Z,64.43
2023-05-09T03:02:03.230Z,64.51
2023-05-09T03:03:03.373Z,64.55
2023-05-09T03:04:03.175Z,64.24
2023-05-09T03:05:03.205Z,64.31
2023-05-09T03:06:03.209Z,63.88
2023-05-09T03:07:03.234Z,64.06
2023-05-09T03:08:03.299Z,64.23
2023-05-09T03:09:03.364Z,64.14
2023-05-09T03:10:03.444Z,64.35
2023-05-09T03:11:03.503Z,64.47
2023-05-09T03:12:03.543Z,64.51
2023-05-09T03:13:03.595Z,64.39
2023-05-09T03:14:03.677Z,64.48
2023-05-09T03:15:03.679Z,63.99
2023-05-09T03:16:03.891Z,64.07
2023-05-09T03:17:03.834Z,64.12
2023-05-09T03:18:03.864Z,64.27
2023-05-09T03:19:03.960Z,63.98
2023-05-09T03:20:04.506Z,63.95
2023-05-09T03:21:04.059Z,63.90
2023-05-09T03:22:04.039Z,63.87
2023-05-09T03:23:04.149Z,63.94
2023-05-09T03:24:04.153Z,63.99
2023-05-09T03:25:04.262Z,64.05
2023-05-09T03:26:04.296Z,64.32
2023-05-09T03:27:04.367Z,64.45
2023-05-09T03:28:04.429Z,63.80
2023-05-09T03:29:04.510Z,63.78
2023-05-09T03:30:04.542Z,63.95
2023-05-09T03:31:04.661Z,63.67
2023-05-09T03:32:04.638Z,63.61
2023-05-09T03:33:04.769Z,63.85
2023-05-09T03:34:04.719Z,63.96
2023-05-09T03:35:04.843Z,64.15
2023-05-09T03:36:04.878Z,64.24
2023-05-09T03:37:04.891Z,64.35
2023-05-09T03:38:04.952Z,64.42
2023-05-09T03:39:05.010Z,64.37
2023-05-09T03:40:05.035Z,64.27
2023-05-09T03:41:05.096Z,64.29
2023-05-09T03:42:05.107Z,64.19
2023-05-09T03:43:05.160Z,64.29
2023-05-09T03:44:05.206Z,64.32
2023-05-09T03:45:05.263Z,64.24
2023-05-09T03:46:05.317Z,64.02
2023-05-09T03:47:05.397Z,64.13
2023-05-09T03:48:05.363Z,63.72
2023-05-09T03:49:05.287Z,64.05
2023-05-09T03:50:05.314Z,63.72
2023-05-09T03:51:05.394Z,63.49
2023-05-09T03:52:05.308Z,63.43
2023-05-09T03:53:05.297Z,63.43
2023-05-09T03:54:05.324Z,63.61
2023-05-09T03:55:05.353Z,63.63
2023-05-09T03:56:05.337Z,63.66
2023-05-09T03:57:05.315Z,63.74
2023-05-09T03:58:05.332Z,63.75
2023-05-09T03:59:05.310Z,63.99
2023-05-09T04:00:05.362Z,64.04
2023-05-09T04:01:05.390Z,63.88
2023-05-09T04:02:05.418Z,63.47
2023-05-09T04:03:05.432Z,63.45
2023-05-09T04:04:05.464Z,63.84
2023-05-09T04:05:05.368Z,64.13
2023-05-09T04:06:05.389Z,64.27
2023-05-09T04:07:05.482Z,64.41
2023-05-09T04:08:05.455Z,64.46
2023-05-09T04:09:05.498Z,64.46
2023-05-09T04:10:05.574Z,64.16
2023-05-09T04:11:05.608Z,63.94
2023-05-09T04:12:05.634Z,64.10
2023-05-09T04:13:05.805Z,64.28
2023-05-09T04:14:05.719Z,64.06
2023-05-09T04:15:05.731Z,63.72
2023-05-09T04:16:05.796Z,64.17
2023-05-09T04:17:05.809Z,64.40
2023-05-09T04:18:05.871Z,64.32
2023-05-09T04:19:05.852Z,63.84
2023-05-09T04:20:05.862Z,63.63
2023-05-09T04:21:05.901Z,63.44
2023-05-09T04:22:05.853Z,63.60
2023-05-09T04:23:05.930Z,63.55
2023-05-09T04:24:05.864Z,63.72
2023-05-09T04:25:05.834Z,63.94
2023-05-09T04:26:05.925Z,64.25
2023-05-09T04:27:05.890Z,64.33
2023-05-09T04:28:05.991Z,63.97
2023-05-09T04:29:05.997Z,63.96
2023-05-09T04:30:06.059Z,64.14
2023-05-09T04:31:06.206Z,64.43
2023-05-09T04:32:06.253Z,64.51
2023-05-09T04:33:06.240Z,64.07
2023-05-09T04:34:06.305Z,64.10
2023-05-09T04:35:06.305Z,64.35
2023-05-09T04:36:06.376Z,64.00
2023-05-09T04:37:06.484Z,63.97
2023-05-09T04:38:06.470Z,64.09
2023-05-09T04:39:06.614Z,64.43
2023-05-09T04:40:06.608Z,64.47
2023-05-09T04:41:06.666Z,64.16
2023-05-09T04:42:06.739Z,64.15
2023-05-09T04:43:06.747Z,64.45
2023-05-09T04:44:06.821Z,64.45
2023-05-09T04:45:06.875Z,64.30
2023-05-09T04:46:06.943Z,64.27
2023-05-09T04:47:06.933Z,64.39
2023-05-09T04:48:07.075Z,64.50
2023-05-09T04:49:07.014Z,64.49
2023-05-09T04:50:07.029Z,64.27
2023-05-09T04:51:07.086Z,64.24
2023-05-09T04:52:07.043Z,64.28
2023-05-09T04:53:07.109Z,64.28
2023-05-09T04:54:07.103Z,64.33
2023-05-09T04:55:07.173Z,64.41
2023-05-09T04:56:07.191Z,64.50
2023-05-09T04:57:17.254Z,64.73
2023-05-09T04:58:08.122Z,64.86
2023-05-09T04:59:07.148Z,64.66
2023-05-09T05:00:07.115Z,64.70
2023-05-09T05:02:26.514Z,64.67
2023-05-09T05:03:26.804Z,64.39
2023-05-09T05:04:26.530Z,64.43
2023-05-09T05:05:26.594Z,64.75
2023-05-09T05:06:26.456Z,64.29
2023-05-09T05:07:26.481Z,64.23
2023-05-09T05:08:26.498Z,64.14
2023-05-09T05:09:26.790Z,64.08
2023-05-09T05:10:26.513Z,63.80
2023-05-09T05:11:26.503Z,63.92
2023-05-09T05:12:26.462Z,64.01
2023-05-09T05:13:26.452Z,64.07
2023-05-09T05:14:27.071Z,64.05
2023-05-09T05:15:26.445Z,63.99
2023-05-09T05:16:26.863Z,63.76
2023-05-09T05:17:26.529Z,63.86
2023-05-09T05:18:26.766Z,63.89
2023-05-09T05:19:26.375Z,63.73
2023-05-09T05:20:26.375Z,64.15
2023-05-09T05:21:26.427Z,64.35
2023-05-09T05:22:26.774Z,64.28
2023-05-09T05:23:26.347Z,63.81
2023-05-09T05:24:26.561Z,63.91
2023-05-09T05:25:26.350Z,64.09
2023-05-09T05:26:26.548Z,64.18
2023-05-09T05:27:26.375Z,64.02
2023-05-09T05:28:26.321Z,64.11
2023-05-09T05:29:26.374Z,63.84
2023-05-09T05:30:26.421Z,64.10
2023-05-09T05:31:27.040Z,64.19
2023-05-09T05:32:26.906Z,63.94
2023-05-09T05:33:26.307Z,63.80
2023-05-09T05:34:26.404Z,63.98
2023-05-09T05:35:26.401Z,63.90
2023-05-09T05:36:27.122Z,63.93
2023-05-09T05:37:26.300Z,64.34
2023-05-09T05:38:26.422Z,64.46
2023-05-09T05:39:26.418Z,64.39
2023-05-09T05:40:26.423Z,64.21
2023-05-09T05:41:26.337Z,64.41
2023-05-09T05:42:27.074Z,64.20
2023-05-09T05:43:26.261Z,64.02
2023-05-09T05:44:26.323Z,63.57
2023-05-09T05:45:26.259Z,63.35
2023-05-09T05:47:45.973Z,63.55
2023-05-09T05:48:45.954Z,63.49
2023-05-09T05:49:45.944Z,63.68
2023-05-09T05:50:46.049Z,63.48
2023-05-09T05:51:46.274Z,63.77
2023-05-09T05:52:45.931Z,63.60
2023-05-09T05:53:45.908Z,63.20
2023-05-09T05:54:45.917Z,63.20
2023-05-09T05:55:45.926Z,63.10
2023-05-09T05:56:45.891Z,63.00
2023-05-09T05:57:46.844Z,63.20
2023-05-09T05:58:45.913Z,63.34
2023-05-09T05:59:45.915Z,62.38
2023-05-09T06:00:45.866Z,62.08
2023-05-09T06:01:45.873Z,61.90
2023-05-09T06:02:45.930Z,61.89
2023-05-09T06:03:45.908Z,62.19
2023-05-09T06:04:45.834Z,62.72
2023-05-09T06:05:46.734Z,62.62
2023-05-09T06:06:48.077Z,62.34
2023-05-09T06:07:46.284Z,62.09
2023-05-09T06:08:45.771Z,62.20
2023-05-09T06:09:45.848Z,62.21
2023-05-09T06:10:45.785Z,62.26
2023-05-09T06:11:45.797Z,61.88
2023-05-09T06:12:45.822Z,62.03
2023-05-09T06:13:45.830Z,62.21
2023-05-09T06:14:45.770Z,62.21
2023-05-09T06:15:45.801Z,62.02
2023-05-09T06:16:45.775Z,61.98
2023-05-09T06:17:45.789Z,61.74
2023-05-09T06:18:45.744Z,61.83
2023-05-09T06:19:45.759Z,61.93
2023-05-09T06:20:45.813Z,62.09
2023-05-09T06:21:45.713Z,62.28
2023-05-09T06:22:45.733Z,62.26
2023-05-09T06:24:01.422Z,62.02
2023-05-09T06:24:46.694Z,62.22
2023-05-09T06:25:45.683Z,61.72
2023-05-09T06:26:46.273Z,61.54
2023-05-09T06:27:45.694Z,61.27
2023-05-09T06:28:45.715Z,61.59
2023-05-09T06:29:45.718Z,61.32
2023-05-09T06:30:45.665Z,61.23
2023-05-09T06:31:45.705Z,61.33
2023-05-09T06:32:45.711Z,60.93
2023-05-09T06:33:45.657Z,61.29
2023-05-09T06:34:45.701Z,61.45
2023-05-09T06:35:45.618Z,61.46
2023-05-09T06:36:45.621Z,61.06
2023-05-09T06:37:48.248Z,60.54
2023-05-09T06:38:45.604Z,60.32
2023-05-09T06:39:45.626Z,60.46
2023-05-09T06:40:45.596Z,60.66
2023-05-09T06:41:45.605Z,60.94
2023-05-09T06:42:46.432Z,61.55
2023-05-09T06:43:45.612Z,61.63
2023-05-09T06:44:45.670Z,61.54
2023-05-09T06:45:45.649Z,60.99
2023-05-09T06:46:45.790Z,60.99
2023-05-09T06:47:45.903Z,60.94
2023-05-09T06:48:45.545Z,60.61
2023-05-09T06:49:45.537Z,60.38
2023-05-09T06:50:45.511Z,60.72
2023-05-09T06:51:45.534Z,60.65
2023-05-09T06:52:45.785Z,60.29
2023-05-09T06:53:45.521Z,60.26
2023-05-09T06:54:45.496Z,60.59
2023-05-09T06:55:45.496Z,61.24
2023-05-09T06:56:45.520Z,61.28
2023-05-09T06:57:45.567Z,60.47
2023-05-09T06:58:45.463Z,60.47
2023-05-09T06:59:45.463Z,60.07
2023-05-09T07:00:45.475Z,59.86
2023-05-09T07:01:45.585Z,60.54
2023-05-09T07:02:45.811Z,60.56
2023-05-09T07:03:45.475Z,60.52
2023-05-09T07:04:45.477Z,60.46
2023-05-09T07:05:45.412Z,59.90
2023-05-09T07:06:45.473Z,59.72
2023-05-09T07:07:45.416Z,59.71
2023-05-09T07:08:45.804Z,60.03
2023-05-09T07:09:45.385Z,60.05
2023-05-09T07:10:45.418Z,59.82
2023-05-09T07:11:45.442Z,59.48
2023-05-09T07:12:45.477Z,59.80
2023-05-09T07:13:45.788Z,59.65
2023-05-09T07:14:45.480Z,60.07
2023-05-09T07:15:45.635Z,60.22
2023-05-09T07:16:45.599Z,60.13
2023-05-09T07:17:45.701Z,59.84
2023-05-09T07:18:45.695Z,59.47
2023-05-09T07:19:45.709Z,59.90
2023-05-09T07:20:45.722Z,59.85
2023-05-09T07:21:45.746Z,59.82
2023-05-09T07:22:45.888Z,60.13
2023-05-09T07:23:45.797Z,59.32
2023-05-09T07:24:45.844Z,59.36
2023-05-09T07:25:45.966Z,59.94
2023-05-09T07:26:45.946Z,60.28
2023-05-09T07:27:45.930Z,61.01
2023-05-09T07:28:46.282Z,60.44
2023-05-09T07:29:45.980Z,59.74
2023-05-09T07:30:45.993Z,59.36
2023-05-09T07:31:46.166Z,59.21
2023-05-09T07:32:46.070Z,59.30
2023-05-09T07:33:46.408Z,59.09
2023-05-09T07:34:46.089Z,59.09
2023-05-09T07:35:46.101Z,59.39
2023-05-09T07:36:46.122Z,58.69
2023-05-09T07:37:46.138Z,59.24
2023-05-09T07:38:46.350Z,59.20
2023-05-09T07:39:46.146Z,58.56
2023-05-09T07:40:46.268Z,59.05
2023-05-09T07:41:48.555Z,58.67
2023-05-09T07:42:46.196Z,58.79
2023-05-09T07:43:46.289Z,58.78
2023-05-09T07:44:46.192Z,58.76
2023-05-09T07:45:46.130Z,59.13
2023-05-09T07:46:46.094Z,59.70
2023-05-09T07:47:46.192Z,59.28
2023-05-09T07:48:46.318Z,59.32
2023-05-09T07:49:46.126Z,59.32
2023-05-09T07:50:46.116Z,59.21
2023-05-09T07:51:46.095Z,59.57
2023-05-09T07:52:46.026Z,59.74
2023-05-09T07:53:46.064Z,58.26
2023-05-09T07:54:46.073Z,58.01
2023-05-09T07:55:46.050Z,58.26
2023-05-09T07:56:46.005Z,58.37
2023-05-09T07:57:46.031Z,58.44
2023-05-09T07:58:46.371Z,58.09
2023-05-09T07:59:46.074Z,57.49
2023-05-09T08:00:46.005Z,57.88
2023-05-09T08:01:46.085Z,57.34
2023-05-09T08:02:46.089Z,57.48
2023-05-09T08:03:46.061Z,57.51
2023-05-09T08:04:46.678Z,57.71
2023-05-09T08:05:46.862Z,58.01
2023-05-09T08:06:46.021Z,58.00
2023-05-09T08:07:46.085Z,57.04
2023-05-09T08:08:45.979Z,57.25
2023-05-09T08:09:45.951Z,57.46
2023-05-09T08:10:46.029Z,57.81
2023-05-09T08:11:45.957Z,57.53
2023-05-09T08:12:45.973Z,57.24
2023-05-09T08:13:46.284Z,57.45
2023-05-09T08:14:45.979Z,56.71
2023-05-09T08:15:46.027Z,56.62
2023-05-09T08:16:46.005Z,56.82
2023-05-09T08:17:45.982Z,57.08
2023-05-09T08:18:46.039Z,57.09
2023-05-09T08:19:45.937Z,56.68
2023-05-09T08:20:45.903Z,56.34
2023-05-09T08:21:45.979Z,56.32
2023-05-09T08:22:45.894Z,55.72
2023-05-09T08:23:46.436Z,55.63
2023-05-09T08:24:45.849Z,55.52
2023-05-09T08:25:45.875Z,55.31
2023-05-09T08:26:45.850Z,55.13
2023-05-09T08:27:45.853Z,55.62
2023-05-09T08:28:45.878Z,55.05
2023-05-09T08:29:46.413Z,54.51
2023-05-09T08:30:45.882Z,53.93
2023-05-09T08:31:45.928Z,53.87
2023-05-09T08:32:46.598Z,54.60
2023-05-09T08:33:46.427Z,54.96
2023-05-09T08:34:45.807Z,54.26
2023-05-09T08:35:45.835Z,53.53
2023-05-09T08:36:45.810Z,52.55
2023-05-09T08:37:45.849Z,51.65
2023-05-09T08:38:45.839Z,51.02
2023-05-09T08:39:45.881Z,51.12
2023-05-09T08:40:45.754Z,51.66
2023-05-09T08:41:45.763Z,52.12
2023-05-09T08:42:45.806Z,52.34
2023-05-09T08:43:45.818Z,53.15
2023-05-09T08:44:45.870Z,53.40
2023-05-09T08:45:45.798Z,53.50
2023-05-09T08:46:45.847Z,53.98
2023-05-09T08:47:45.846Z,54.17
2023-05-09T08:48:45.923Z,53.60
2023-05-09T08:49:46.449Z,53.50
2023-05-09T08:50:46.017Z,52.90
2023-05-09T08:51:46.066Z,53.15
2023-05-09T08:52:46.061Z,52.16
2023-05-09T08:53:46.154Z,52.55
2023-05-09T08:54:46.352Z,53.25
2023-05-09T08:55:46.277Z,52.75
2023-05-09T08:56:46.192Z,52.73
2023-05-09T08:57:46.372Z,52.24
2023-05-09T08:58:46.371Z,52.38
2023-05-09T08:59:46.400Z,52.49
2023-05-09T09:00:46.444Z,51.92
2023-05-09T09:01:46.484Z,51.92
2023-05-09T09:02:46.571Z,52.13
2023-05-09T09:03:46.532Z,51.30
2023-05-09T09:04:46.607Z,51.88
2023-05-09T09:05:46.618Z,51.67
2023-05-09T09:06:46.539Z,51.41
2023-05-09T09:07:46.553Z,50.75
2023-05-09T09:08:46.561Z,50.91
2023-05-09T09:09:46.635Z,51.12
2023-05-09T09:10:46.574Z,50.87
2023-05-09T09:11:46.580Z,50.46
2023-05-09T09:12:48.690Z,50.77
2023-05-09T09:13:46.516Z,50.63
2023-05-09T09:14:46.851Z,48.81
2023-05-09T09:15:46.602Z,48.70
2023-05-09T09:16:46.572Z,48.01
2023-05-09T09:17:46.609Z,49.14
2023-05-09T09:18:46.537Z,48.93
2023-05-09T09:19:46.529Z,48.92
2023-05-09T09:20:47.614Z,49.19
2023-05-09T09:21:46.565Z,47.50
2023-05-09T09:22:46.553Z,48.50
2023-05-09T09:23:46.467Z,48.62
2023-05-09T09:24:46.982Z,48.13
2023-05-09T09:25:46.513Z,46.36
2023-05-09T09:26:46.485Z,45.42
2023-05-09T09:27:46.553Z,45.29
2023-05-09T09:28:46.442Z,45.06
2023-05-09T09:29:46.840Z,45.51
2023-05-09T09:30:46.405Z,46.18
2023-05-09T09:31:46.517Z,46.40
2023-05-09T09:32:46.481Z,47.17
2023-05-09T09:33:46.442Z,46.13
2023-05-09T09:34:46.434Z,47.12
2023-05-09T09:35:46.429Z,45.82
2023-05-09T09:36:46.447Z,46.09
2023-05-09T09:37:46.437Z,45.77
2023-05-09T09:38:46.403Z,46.00
2023-05-09T09:39:46.409Z,46.66
2023-05-09T09:40:46.878Z,45.03
2023-05-09T09:41:46.409Z,44.14
2023-05-09T09:42:46.315Z,45.94
2023-05-09T09:43:46.333Z,46.42
2023-05-09T09:44:46.333Z,47.61
2023-05-09T09:45:46.359Z,45.62
2023-05-09T09:46:46.389Z,46.04
2023-05-09T09:47:46.339Z,45.64
2023-05-09T09:48:46.332Z,44.83
2023-05-09T09:49:46.440Z,43.38
2023-05-09T09:50:46.283Z,46.00
2023-05-09T09:51:46.352Z,45.22
2023-05-09T09:52:46.353Z,42.70
2023-05-09T09:53:46.295Z,42.79
2023-05-09T09:54:46.374Z,42.36
2023-05-09T09:55:46.565Z,42.55
2023-05-09T09:56:46.601Z,43.86
2023-05-09T09:57:46.708Z,43.21
2023-05-09T09:58:46.633Z,44.03
2023-05-09T09:59:46.649Z,43.57
2023-05-09T10:00:46.740Z,43.63
2023-05-09T10:01:46.737Z,44.99
2023-05-09T10:02:46.757Z,43.68
2023-05-09T10:03:46.760Z,42.43
2023-05-09T10:04:46.762Z,45.57
2023-05-09T10:05:46.789Z,43.60
2023-05-09T10:06:46.789Z,43.15
2023-05-09T10:07:46.765Z,41.56
2023-05-09T10:08:46.865Z,42.37
2023-05-09T10:09:46.890Z,42.61
2023-05-09T10:10:47.408Z,42.82
2023-05-09T10:11:46.885Z,41.98
2023-05-09T10:12:46.944Z,42.57
2023-05-09T10:13:47.043Z,44.07
2023-05-09T10:14:47.027Z,43.41
2023-05-09T10:15:53.488Z,42.36
2023-05-09T10:16:48.135Z,42.44
2023-05-09T10:17:47.126Z,43.02
2023-05-09T10:18:47.153Z,42.29
2023-05-09T10:19:46.975Z,42.66
2023-05-09T10:20:47.101Z,42.83
2023-05-09T10:21:46.970Z,40.63
2023-05-09T10:22:46.958Z,40.58
2023-05-09T10:23:46.987Z,40.17
2023-05-09T10:24:46.964Z,40.52
2023-05-09T10:25:46.978Z,40.65
2023-05-09T10:26:46.934Z,40.58
2023-05-09T10:27:46.982Z,40.22
2023-05-09T10:28:47.012Z,39.27
2023-05-09T10:29:47.094Z,40.26
2023-05-09T10:30:47.134Z,41.01
2023-05-09T10:31:47.233Z,40.27
2023-05-09T10:32:47.198Z,39.92
2023-05-09T10:33:47.167Z,40.06
2023-05-09T10:34:47.149Z,39.79
2023-05-09T10:35:47.381Z,38.61
2023-05-09T10:36:47.272Z,38.13
2023-05-09T10:37:47.319Z,37.97
2023-05-09T10:38:47.313Z,39.79
2023-05-09T10:39:47.333Z,39.52
2023-05-09T10:40:47.853Z,39.93
2023-05-09T10:41:48.122Z,39.80
2023-05-09T10:42:47.463Z,40.28
2023-05-09T10:43:47.528Z,39.39
2023-05-09T10:44:47.536Z,39.43
2023-05-09T10:45:47.596Z,39.64
2023-05-09T10:46:47.680Z,40.17
2023-05-09T10:47:47.621Z,37.44
2023-05-09T10:48:47.684Z,37.75
2023-05-09T10:49:47.684Z,38.60
2023-05-09T10:50:47.769Z,38.73
2023-05-09T10:51:47.792Z,38.17
2023-05-09T10:52:47.904Z,37.65
2023-05-09T10:53:47.949Z,38.94
2023-05-09T10:54:47.887Z,39.39
2023-05-09T10:55:47.958Z,37.79
2023-05-09T10:56:48.011Z,38.29
2023-05-09T10:57:48.137Z,38.61
2023-05-09T10:58:48.111Z,37.13
2023-05-09T10:59:48.108Z,38.52
2023-05-09T11:00:48.146Z,37.91
2023-05-09T11:01:48.257Z,36.85
2023-05-09T11:02:48.356Z,38.15
2023-05-09T11:03:48.393Z,37.16
2023-05-09T11:04:48.833Z,37.26
2023-05-09T11:05:49.435Z,35.45
2023-05-09T11:06:48.395Z,35.72
2023-05-09T11:07:48.428Z,35.25
2023-05-09T11:08:48.443Z,36.55
2023-05-09T11:09:48.574Z,36.08
2023-05-09T11:10:48.645Z,34.90
2023-05-09T11:11:48.656Z,34.59
2023-05-09T11:12:48.732Z,36.50
2023-05-09T11:13:48.756Z,34.03
2023-05-09T11:14:48.791Z,34.56
2023-05-09T11:15:48.928Z,34.19
2023-05-09T11:16:48.852Z,35.11
2023-05-09T11:17:48.950Z,33.87
2023-05-09T11:18:48.889Z,34.09
2023-05-09T11:19:48.958Z,32.88
2023-05-09T11:20:49.098Z,31.53
2023-05-09T11:21:49.025Z,31.89
2023-05-09T11:22:49.110Z,32.62
2023-05-09T11:23:49.137Z,32.40
2023-05-09T11:24:49.160Z,31.78
2023-05-09T11:25:49.394Z,31.74
2023-05-09T11:26:49.164Z,32.40
2023-05-09T11:27:49.271Z,31.71
2023-05-09T11:28:49.277Z,31.66
2023-05-09T11:29:49.307Z,30.73
2023-05-09T11:30:49.443Z,33.46
2023-05-09T11:31:49.476Z,32.31
2023-05-09T11:32:49.466Z,31.57
2023-05-09T11:33:49.529Z,31.07
2023-05-09T11:34:49.571Z,33.54
2023-05-09T11:35:49.888Z,31.91
2023-05-09T11:36:49.536Z,30.42
2023-05-09T11:37:49.542Z,29.32
2023-05-09T11:38:49.593Z,30.85
2023-05-09T11:39:49.688Z,28.21
2023-05-09T11:40:49.994Z,28.58
2023-05-09T11:41:49.772Z,30.78
2023-05-09T11:42:49.773Z,28.86
2023-05-09T11:43:49.712Z,27.95
2023-05-09T11:44:49.745Z,29.54
2023-05-09T11:45:49.949Z,30.14
2023-05-09T11:46:49.916Z,29.05
2023-05-09T11:47:49.958Z,29.42
2023-05-09T11:48:49.893Z,28.43
2023-05-09T11:49:49.994Z,28.19
2023-05-09T11:50:49.953Z,29.03
2023-05-09T11:51:49.931Z,28.04
2023-05-09T11:52:50.054Z,29.56
2023-05-09T11:53:50.076Z,29.04
2023-05-09T11:54:50.054Z,29.09
2023-05-09T11:55:50.168Z,26.76
2023-05-09T11:56:50.178Z,27.05
2023-05-09T11:57:50.216Z,27.68
2023-05-09T11:58:50.226Z,27.52
2023-05-09T11:59:50.304Z,30.20
2023-05-09T12:00:50.262Z,27.88
2023-05-09T12:01:50.324Z,27.82
2023-05-09T12:02:50.434Z,27.91
2023-05-09T12:03:50.566Z,25.93
2023-05-09T12:04:50.449Z,28.18
2023-05-09T12:05:50.605Z,25.96
2023-05-09T12:06:50.552Z,27.44
2023-05-09T12:07:50.567Z,25.67
2023-05-09T12:08:50.498Z,25.47
2023-05-09T12:09:50.582Z,27.76
2023-05-09T12:10:50.587Z,26.38
2023-05-09T12:11:50.698Z,24.95
2023-05-09T12:12:50.817Z,25.52
2023-05-09T12:13:50.649Z,25.43
2023-05-09T12:14:50.711Z,25.22
2023-05-09T12:15:50.843Z,24.26
2023-05-09T12:16:50.739Z,23.55
2023-05-09T12:17:52.089Z,24.26
2023-05-09T12:18:50.844Z,26.04
2023-05-09T12:19:50.952Z,25.11
2023-05-09T12:20:50.962Z,24.17
2023-05-09T12:21:51.129Z,26.10
2023-05-09T12:22:50.981Z,26.66
2023-05-09T12:23:52.463Z,26.24
2023-05-09T12:24:51.091Z,25.38
2023-05-09T12:25:51.142Z,25.19
2023-05-09T12:26:51.182Z,23.00
2023-05-09T12:27:51.206Z,22.67
2023-05-09T12:28:51.223Z,22.77
2023-05-09T12:29:52.471Z,23.18
2023-05-09T12:30:51.232Z,24.64
2023-05-09T12:31:51.256Z,23.59
2023-05-09T12:32:51.226Z,24.86
2023-05-09T12:33:51.184Z,24.06
2023-05-09T12:34:51.178Z,25.28
2023-05-09T12:35:51.917Z,24.88
2023-05-09T12:36:51.214Z,22.95
2023-05-09T12:37:51.227Z,23.56
2023-05-09T12:38:51.117Z,24.09
2023-05-09T12:39:51.191Z,23.28
2023-05-09T12:40:51.140Z,23.22
2023-05-09T12:42:51.192Z,23.22
2023-05-09T12:43:51.117Z,23.58
2023-05-09T12:44:51.117Z,23.51
2023-05-09T12:45:51.119Z,25.32
2023-05-09T12:46:51.249Z,23.51
2023-05-09T12:47:51.184Z,24.21
2023-05-09T12:48:51.072Z,23.20
2023-05-09T12:49:51.072Z,23.85
2023-05-09T12:50:51.089Z,24.00
2023-05-09T12:51:51.106Z,23.36
2023-05-09T12:53:02.731Z,24.60
2023-05-09T12:53:52.125Z,23.88
2023-05-09T12:54:51.072Z,24.01
2023-05-09T12:55:51.081Z,25.10
2023-05-09T12:56:51.073Z,24.78